Weather at Big Whale Cay Airport

Public forecast

Using degrees Celsius for public forecast. Weather courtesy of forecast.io.

Closest aviation weather report (METAR) to Big Whale Cay Airport

Closest report is Lynden Pindling International Airport, 27.9 nm (51.7 km) SE.

2024/05/18 23:00 (retrieved 23 minutes ago)

MYNN 182300Z 16008KT 9999 FEW025 SCT220 31/24 A2999

Closest aviation forecast (TAF) to Big Whale Cay Airport

Closest forecast is Lynden Pindling International Airport, 27.9 nm (51.7 km) SE.

2024/05/18 18:07 (retrieved 5 hours ago)

TAF MYNN 181700Z 1818/1918 20008KT 9999 FEW025 BECMG 1900/1902 14004KT CAVOK PROB30 TEMPO 1908/1912 VRB04KT 6000 BCFG NSC FM191400 14005KT 9999 FEW015CB SCT022